Sloughhouse, California
Current Conditions -  °F | °C
As of 8:45 PM on Wednesday 26 Nov 2014 (Local Time) from KMHR Reporting Station
Scattered Clouds Scattered Clouds  
Wind Chill: 46°   Ceiling: Unl
Heat Index: 46°   Visibility: 10mi
Dew Point: 43°   Wind: 3mph
Humidity: 87%   Direction: 120°ESE
Pressure: 30.23"   Gusts: NA
Location:  38.5°N, 121.19°W
Report Text: KMHR 270445Z 12003KT 10SM SCT200 08/06 A3023
Loading
Personal Weather Stations






























Interactive Weather Map New forecast layout! Learn more

10-Day Weather Forecast

Advertisements
Track Severe Weather on mobile